Station: Cape Jaffa

  Atmospheric Gas Attenuation - ITU Rec 676-11   --------------- db/100km ---------------
Date Time Temp RH % AH g/m3 Dew Point Wind Direction Speed kph Gust kph Barometer mB Rainfall Since 9am 24GHz 47GHz 76GHz 122GHz 134GHz 241GHz
17 01:00 6.5 91 6.83 5.1 9 13 1022.2 0 16.1 25.4 36.5 95.3 83.9 286.5
17 00:50 7.5 91 7.29 6.2 7 7 1013.1 0 17.1 25.6 37.5 98.3 88.4 302.6
17 00:40 7.5 91 7.29 6.2 4 4 1013.1 0 17.1 25.6 37.5 98.3 88.4 302.6
17 00:30 6.9 92 7.09 5.7 0 4 1022.8 0 16.7 25.8 37.4 97.8 87.0 297.6
17 00:20 6.3 91 6.74 4.9 0 0 1013.1 0 15.9 25.0 35.8 93.7 82.2 280.7
17 00:10 7 91 7.05 5.6 2 4 1013.1 0 16.6 25.3 36.8 96.3 85.7 293.0
17 00:00 7 91 7.05 5.6 4 4 1023.1 0 16.6 25.7 37.2 97.3 86.4 295.4
16 23:50 7 91 7.05 5.6 4 4 1013.1 0 16.6 25.3 36.8 96.3 85.7 293.0
16 23:40 7.3 91 7.19 5.9 7 7 1013.1 0 16.9 25.4 37.2 97.4 87.2 298.5
16 23:30 7.3 91 7.19 5.9 9 9 1023 0 16.9 25.8 37.6 98.4 88.0 301.0
16 23:20 7.3 89 7.04 5.7 9 9 1013.1 0 16.5 25.2 36.6 95.8 85.2 291.4
16 23:10 7.5 90 7.21 5.9 9 9 1013.1 0 16.9 25.4 37.2 97.4 87.3 298.7
16 23:00 7.8 89 7.27 6.1 9 9 1023.1 0 17.0 25.8 37.7 98.7 88.5 302.9
16 22:50 8.2 89 7.46 6.5 7 9 1013.1 0 17.4 25.6 37.9 99.3 89.9 308.0
16 22:40 8.7 89 7.7 7 7 7 1013.1 0 17.9 25.9 38.6 101.3 92.6 317.5
16 22:30 8.7 89 7.7 7 7 9 1023.5 0 17.9 26.3 39.1 102.4 93.4 320.2
16 22:20 8.4 89 7.55 6.7 9 9 1013.1 0 17.6 25.7 38.2 100.0 90.9 311.5
16 22:10 8.3 89 7.5 6.6 9 9 1013.1 0 17.5 25.7 38.0 99.6 90.3 309.5
16 22:00 8.3 88 7.42 6.4 9 9 1023.6 0 17.3 25.9 38.1 99.8 90.0 308.3
16 21:50 8.5 87 7.43 6.4 9 9 1013.1 0 17.3 25.5 37.6 98.6 89.1 305.4
16 21:40 8.9 85 7.45 6.6 7 7 1013.1 0 17.3 25.4 37.5 98.3 88.9 304.7
16 21:30 9.3 86 7.73 7.1 7 9 1023.7 0 17.9 26.2 38.9 102.0 93.1 319.2
16 21:20 9.4 87 7.87 7.3 7 7 1013.1 0 18.2 26.0 39.0 102.3 94.1 322.7
16 21:10 9.1 88 7.81 7.2 6 7 1013.1 0 18.1 26.0 38.9 102.0 93.6 321.1
16 21:00 8.3 86 7.25 6.1 7 7 1023.7 0 16.9 25.7 37.4 97.9 87.7 300.2
16 20:50 9.2 88 7.86 7.3 7 7 1013.1 0 18.2 26.0 39.1 102.4 94.2 323.1
16 20:40 9 88 7.76 7.1 7 7 1013.1 0 18.0 25.9 38.7 101.6 93.0 319.1
16 20:30 9.3 86 7.73 7.1 7 9 1023.7 0 17.9 26.2 38.9 102.0 93.1 319.2
16 20:20 9.1 85 7.54 6.7 7 7 1013.1 0 17.5 25.5 37.8 99.0 89.9 308.2
16 20:10 9.7 85 7.84 7.4 7 7 1013.1 0 18.2 25.8 38.7 101.6 93.3 320.1
16 20:00 10.2 86 8.19 8 7 9 1023.7 0 18.9 26.7 40.4 105.9 98.3 337.6
16 19:50 9.8 87 8.07 7.7 7 7 1013.1 0 18.6 26.2 39.6 104.0 96.3 330.6
16 19:40 10.2 87 8.28 8.1 7 7 1013.1 0 19.1 26.4 40.3 105.8 98.7 339.0
16 19:30 9.4 86 7.78 7.2 7 7 1023.5 0 18.0 26.2 39.1 102.4 93.7 321.2
16 19:20 10.4 89 8.58 8.6 7 7 1013.1 0 19.7 26.9 41.5 108.8 102.5 352.5
16 19:10 9.8 88 8.17 7.9 6 7 1013.1 0 18.9 26.4 40.0 105.1 97.7 335.4
16 19:00 9.5 88 8.01 7.6 7 9 1023.6 0 18.5 26.6 40.0 104.8 96.7 331.8
16 18:50 9.9 88 8.22 8 7 7 1013.1 0 19.0 26.4 40.2 105.5 98.2 337.4
16 18:40 9.8 87 8.07 7.7 7 7 1013.1 0 18.6 26.2 39.6 104.0 96.3 330.6
16 18:30 9.9 86 8.03 7.7 7 9 1023.3 0 18.5 26.5 39.9 104.5 96.5 331.0
16 18:20 9.9 85 7.94 7.6 7 9 1013.1 0 18.4 25.9 39.0 102.4 94.4 324.0
16 18:10 9.9 85 7.94 7.5 9 9 1013.1 0 18.4 25.9 39.0 102.4 94.4 324.0
16 18:00 9.7 84 7.75 7.1 9 9 1023.3 0 18.0 26.1 38.8 101.6 92.9 318.4
16 17:50 10.2 85 8.09 7.8 7 7 1013.1 0 18.7 26.1 39.5 103.7 96.1 329.9
16 17:40 10.1 84 7.95 7.5 7 7 1013.1 0 18.4 25.9 39.0 102.3 94.3 323.6
16 17:30 10.1 84 7.95 7.5 9 11 1023.1 0 18.4 26.3 39.4 103.3 95.1 326.3
16 17:20 10.1 83 7.85 7.3 9 9 1013.1 0 18.2 25.7 38.6 101.2 92.9 318.9
16 17:10 10.5 83 8.05 7.7 9 9 1013.1 0 18.6 26.0 39.2 102.8 95.2 326.7
16 17:00 10.8 82 8.11 7.9 11 11 1023.1 0 18.7 26.3 39.7 104.1 96.4 331.0
16 16:50 11.5 79 8.16 8.1 11 11 1013.1 0 18.8 25.8 39.2 102.7 95.4 327.7
16 16:40 12.2 77 8.31 8.4 9 11 1013.1 0 19.0 25.9 39.4 103.4 96.5 331.8
16 16:30 12.7 76 8.46 8.6 9 11 1022.9 0 19.3 26.4 40.2 105.4 98.7 339.4
16 16:20 13.1 74 8.44 8.7 9 9 1013.1 0 19.3 25.8 39.5 103.6 97.2 334.0
16 16:10 13.3 73 8.43 8.7 11 13 1013.1 0 19.3 25.8 39.4 103.3 96.8 332.7
16 16:00 13.5 73 8.54 8.8 11 15 1023 0 19.5 26.3 40.1 105.2 98.8 339.7
16 15:50 13.6 73 8.59 8.8 13 13 1013.1 0 19.6 25.9 39.9 104.6 98.5 338.9
16 15:40 13.7 72 8.53 8.7 13 15 1013.1 0 19.4 25.8 39.6 103.8 97.6 335.6
16 15:30 13.9 71 8.51 8.7 13 15 1023 0 19.4 26.1 39.8 104.4 97.9 336.6
16 15:20 14.1 73 8.86 9.3 11 13 1013.1 0 20.1 26.2 40.7 106.8 101.4 349.2
16 15:10 14 72 8.68 9 13 15 1013.1 0 19.8 26.0 40.0 105.0 99.2 341.3
16 15:00 14.3 71 8.72 9.1 13 17 1023 0 19.8 26.3 40.5 106.1 100.2 344.6
16 14:50 14.1 70 8.5 8.7 15 15 1013.1 0 19.4 25.6 39.2 103.0 96.7 332.6
16 14:40 14.4 72 8.9 9.4 13 15 1013.1 0 20.2 26.2 40.7 106.8 101.6 349.7
16 14:30 14.4 72 8.9 9.4 15 19 1023 0 20.2 26.6 41.1 107.9 102.4 352.5
16 14:20 14.1 70 8.5 8.7 15 19 1013.1 0 19.4 25.6 39.2 103.0 96.7 332.6
16 14:10 14.6 73 9.14 9.8 15 15 1013.1 0 20.7 26.5 41.6 109.2 104.5 360.0
16 14:00 14.5 74 9.2 9.9 17 19 1023.2 0 20.8 27.0 42.3 111.0 106.3 366.2
16 13:50 14.2 72 8.79 9.2 15 19 1013.1 0 20.0 26.1 40.4 105.9 100.4 345.5
16 13:40 14.2 72 8.79 9.2 17 19 1013.1 0 20.0 26.1 40.4 105.9 100.4 345.5
16 13:30 14.6 73 9.14 9.8 17 19 1023.2 0 20.7 26.9 42.0 110.2 105.4 362.9
16 13:20 14.5 73 9.08 9.7 17 19 1013.1 0 20.6 26.5 41.4 108.6 103.8 357.6
16 13:10 14.6 74 9.26 10 17 17 1013.1 0 21.0 26.7 42.0 110.5 106.1 365.6
16 13:00 14.2 72 8.79 9.2 17 20 1023.3 0 20.0 26.5 40.8 107.0 101.2 348.4
16 12:50 14.4 74 9.15 9.8 17 19 1013.1 0 20.7 26.6 41.7 109.5 104.9 361.3
16 12:40 14.3 74 9.09 9.7 15 17 1013.1 0 20.6 26.5 41.5 109.0 104.2 359.0
16 12:30 14.3 74 9.09 9.7 15 19 1023.6 0 20.6 26.9 42.0 110.2 105.1 362.0
16 12:20 14.5 75 9.33 10.1 17 17 1013.1 0 21.1 26.9 42.4 111.4 107.2 369.3
16 12:10 14.4 76 9.39 10.2 17 17 1013.1 0 21.2 27.0 42.7 112.2 108.1 372.6
16 12:00 14.4 75 9.27 10 15 19 1024.1 0 21.0 27.2 42.7 112.0 107.5 370.2
16 11:50 14.3 76 9.34 10.1 15 17 1013.1 0 21.1 26.9 42.5 111.8 107.6 370.7
16 11:40 14.3 77 9.46 10.3 11 13 1013.1 0 21.4 27.1 43.0 113.1 109.2 376.4
16 11:30 14.2 77 9.4 10.2 15 19 1024.3 0 21.3 27.5 43.4 113.8 109.5 377.4
16 11:20 14.1 78 9.47 10.3 17 19 1013.1 0 21.4 27.2 43.2 113.5 109.6 377.8
16 11:10 14 79 9.53 10.4 15 19 1013.1 0 21.6 27.4 43.5 114.3 110.6 381.2
16 11:00 13.9 80 9.59 10.5 15 19 1024.5 0 21.7 27.9 44.3 116.4 112.6 388.0
16 10:50 13.9 81 9.71 10.7 15 17 1013.1 0 22.0 27.7 44.3 116.4 113.2 390.3
16 10:40 13.8 83 9.89 10.9 15 17 1013.1 0 22.4 28.0 45.1 118.6 115.8 399.5
16 10:30 13.7 88 10.42 11.8 7 13 1024.9 0 23.5 29.4 48.0 126.2 124.6 429.8
16 10:20 12.9 90 10.14 11.3 0 0 1013.1 0 22.9 28.7 46.7 122.8 120.7 416.4
16 10:10 12.1 90 9.65 10.5 2 2 1013.1 0 21.9 28.2 45.1 118.5 115.0 396.5
16 10:00 11.1 90 9.07 9.5 0 2 1024.9 0 20.7 27.9 43.7 114.7 109.4 376.6
16 09:50 11 90 9.01 9.5 0 0 1013.1 0 20.6 27.4 43.0 112.8 107.7 370.6
16 09:40 10.2 92 8.76 8.9 4 4 1013.1 0 20.1 27.2 42.3 111.2 105.3 362.2
16 09:30 9.6 91 8.34 8.2 4 6 1024.8 0 19.2 27.2 41.4 108.5 101.3 347.8
16 09:20 9.2 92 8.22 7.9 2 2 1013.1 0 19.0 26.6 40.6 106.5 99.1 340.4
16 09:10 8.3 91 7.67 7 2 4 1013.1 0 17.8 26.0 38.7 101.5 92.7 317.6
16 09:00 8.1 93 7.74 7 7 9 1024.6 0 18.0 26.6 39.6 103.8 94.8 324.9
16 08:50 7.6 91 7.33 6.3 7 7 1013.1 0.2 17.1 25.6 37.6 98.6 88.8 304.1
16 08:40 7.2 93 7.3 6.1 4 4 1013.1 0.2 17.1 25.7 37.7 98.8 88.9 304.2
16 08:30 6.3 92 6.81 5.1 6 9 1024.3 0.2 16.1 25.5 36.6 95.6 84.0 286.7

Last Refresh: 17-Jul-2020 01:07:11

Most of the information presented on this site is sourced from the Bureau of Meteorology.  Copyright in all material sourced from the Bureau of Meteorology resides with the Commonwealth of Australia.